Time;durP1;ratioP1;P1;durP2;ratioP2;P2;SDS_P1;SDS_P2;PMS_P1;PMS_P2;Temp;Humidity;BMP_temperature;BMP_pressure;BME280_temperature;BME280_humidity;BME280_pressure;Samples;Min_cycle;Max_cycle;Signal;HPM_P1;HPM_P2
2022/02/20 00:00:49;;;;;;;1.73;1.00;;;6.30;99.90;;;;;;4990705;28;20465;-68
2022/02/20 00:03:15;;;;;;;1.57;1.30;;;6.30;99.90;;;;;;5083393;27;21058;-69
2022/02/20 00:05:41;;;;;;;5.30;1.37;;;6.30;99.90;;;;;;5011107;28;20217;-69
2022/02/20 00:08:06;;;;;;;2.03;1.33;;;6.30;99.90;;;;;;5002289;28;20220;-69
2022/02/20 00:10:32;;;;;;;2.13;1.40;;;6.30;99.90;;;;;;5010679;28;20241;-70
2022/02/20 00:12:59;;;;;;;7.87;1.73;;;6.30;99.90;;;;;;5005951;28;20220;-69
2022/02/20 00:15:25;;;;;;;1.37;1.10;;;6.30;99.90;;;;;;4987922;28;20225;-69
2022/02/20 00:17:53;;;;;;;1.17;1.07;;;6.30;99.90;;;;;;5029939;27;20463;-70
2022/02/20 00:20:19;;;;;;;1.73;1.43;;;6.30;99.90;;;;;;5009948;28;20465;-68
2022/02/20 00:22:45;;;;;;;4.43;1.40;;;6.30;99.90;;;;;;5054195;28;20851;-68
2022/02/20 00:25:11;;;;;;;1.07;1.00;;;6.30;99.90;;;;;;5106417;27;20455;-68
2022/02/20 00:27:37;;;;;;;1.90;1.00;;;6.30;99.90;;;;;;5033711;27;20256;-69
2022/02/20 00:30:04;;;;;;;2.37;1.40;;;6.30;99.90;;;;;;5004014;28;20467;-69
2022/02/20 00:32:29;;;;;;;2.37;1.63;;;6.30;99.90;;;;;;5001524;28;20491;-69
2022/02/20 00:34:56;;;;;;;1.20;1.10;;;6.30;99.90;;;;;;5021929;28;20454;-68
2022/02/20 00:37:22;;;;;;;3.70;1.30;;;6.30;99.90;;;;;;5018199;28;20848;-69
2022/02/20 00:39:47;;;;;;;1.83;1.37;;;6.30;99.90;;;;;;5002895;28;20225;-72
2022/02/20 00:42:14;;;;;;;3.53;1.20;;;6.30;99.90;;;;;;5016543;28;20475;-70
2022/02/20 00:44:39;;;;;;;2.07;1.33;;;6.30;99.90;;;;;;5020469;28;20250;-70
2022/02/20 00:47:05;;;;;;;0.90;0.90;;;6.30;99.90;;;;;;5032643;27;20483;-71
2022/02/20 00:49:31;;;;;;;2.60;0.97;;;6.30;99.90;;;;;;5001610;28;20252;-70
2022/02/20 00:51:57;;;;;;;1.63;1.40;;;6.40;99.90;;;;;;5008281;28;21166;-68
2022/02/20 00:54:23;;;;;;;2.57;0.70;;;6.30;99.90;;;;;;4975109;28;20765;-68
2022/02/20 00:56:48;;;;;;;3.40;1.50;;;6.30;99.90;;;;;;4984639;28;20225;-68
2022/02/20 00:59:14;;;;;;;5.30;1.03;;;6.40;99.90;;;;;;4971634;28;20316;-70
2022/02/20 01:01:42;;;;;;;2.27;1.30;;;6.40;99.90;;;;;;5027508;27;20248;-68
2022/02/20 01:04:09;;;;;;;1.30;0.90;;;6.40;99.90;;;;;;4989351;28;20464;-68
2022/02/20 01:06:35;;;;;;;1.33;1.20;;;6.40;99.90;;;;;;4985779;28;21024;-68
2022/02/20 01:09:02;;;;;;;2.43;1.17;;;6.40;99.90;;;;;;4998173;28;20312;-69
2022/02/20 01:11:30;;;;;;;2.13;1.27;;;6.40;99.90;;;;;;5022405;28;20479;-68
2022/02/20 01:13:55;;;;;;;2.20;0.83;;;6.40;99.90;;;;;;5002009;28;20963;-69
2022/02/20 01:16:21;;;;;;;3.63;1.10;;;6.40;99.90;;;;;;4998807;28;20228;-68
2022/02/20 01:18:47;;;;;;;2.57;1.53;;;6.40;99.90;;;;;;5001501;28;20308;-69
2022/02/20 01:21:13;;;;;;;3.70;0.90;;;6.40;99.90;;;;;;5002607;28;20229;-69
2022/02/20 01:23:39;;;;;;;0.83;0.80;;;6.50;99.90;;;;;;5016587;28;20243;-69
2022/02/20 01:26:04;;;;;;;1.30;1.20;;;6.50;99.90;;;;;;5001724;28;20237;-68
2022/02/20 01:28:30;;;;;;;2.23;1.47;;;6.40;99.90;;;;;;4978349;28;20560;-67
2022/02/20 01:30:56;;;;;;;0.77;0.77;;;6.40;99.90;;;;;;5045157;27;20589;-68
2022/02/20 01:33:22;;;;;;;1.13;0.87;;;6.40;99.90;;;;;;5004225;27;20217;-68
2022/02/20 01:35:47;;;;;;;2.53;0.90;;;6.50;99.90;;;;;;5013545;27;20226;-68
2022/02/20 01:38:15;;;;;;;0.90;0.90;;;6.40;99.90;;;;;;5009010;27;20251;-69
2022/02/20 01:40:46;;;;;;;0.83;0.77;;;6.40;99.90;;;;;;5030419;28;20222;-68
2022/02/20 01:43:12;;;;;;;2.00;0.80;;;6.40;99.90;;;;;;4980735;28;20464;-69
2022/02/20 01:45:40;;;;;;;2.47;1.20;;;6.40;99.90;;;;;;4994435;28;20461;-69
2022/02/20 01:48:08;;;;;;;1.40;1.17;;;6.40;99.90;;;;;;4997178;27;20573;-69
2022/02/20 01:50:35;;;;;;;1.40;0.90;;;6.40;99.90;;;;;;5008100;27;20466;-68
2022/02/20 01:53:01;;;;;;;0.80;0.80;;;6.50;99.90;;;;;;4994650;28;20465;-68
2022/02/20 01:55:27;;;;;;;1.93;1.23;;;6.50;99.90;;;;;;5018078;27;20456;-68
2022/02/20 01:58:04;;;;;;;8.40;0.87;;;6.40;99.90;;;;;;4978883;28;20216;-70
2022/02/20 02:00:37;;;;;;;1.77;0.90;;;6.40;99.90;;;;;;4995768;27;20466;-69
2022/02/20 02:03:23;;;;;;;1.43;1.23;;;6.40;99.90;;;;;;5021339;28;21048;-69
2022/02/20 02:05:57;;;;;;;0.90;0.87;;;6.40;99.90;;;;;;4996890;28;20475;-68
2022/02/20 02:08:24;;;;;;;1.83;1.30;;;6.40;99.90;;;;;;5038149;28;20468;-68
2022/02/20 02:11:12;;;;;;;3.40;1.07;;;6.40;99.90;;;;;;4998573;28;20229;-68
2022/02/20 02:13:58;;;;;;;2.03;0.93;;;6.40;99.90;;;;;;5015690;28;20468;-70
2022/02/20 02:16:50;;;;;;;1.50;0.83;;;6.40;99.90;;;;;;4995221;28;20597;-68
2022/02/20 02:19:32;;;;;;;2.10;1.10;;;6.40;99.90;;;;;;4995156;28;20467;-69
2022/02/20 02:22:09;;;;;;;1.23;1.00;;;6.40;99.90;;;;;;5050426;27;20472;-70
2022/02/20 02:24:48;;;;;;;4.07;1.30;;;6.50;99.90;;;;;;5014576;28;20478;-68
2022/02/20 02:27:35;;;;;;;3.50;0.70;;;6.40;99.90;;;;;;5017084;28;21065;-69
2022/02/20 02:30:11;;;;;;;1.17;0.93;;;6.50;99.90;;;;;;5018793;28;20554;-72
2022/02/20 02:32:37;;;;;;;8.43;1.70;;;6.50;99.90;;;;;;5083233;27;20466;-68
2022/02/20 02:35:04;;;;;;;1.27;0.67;;;6.50;99.90;;;;;;4998273;28;20468;-69
2022/02/20 02:37:30;;;;;;;1.73;1.10;;;6.50;99.90;;;;;;4992381;28;20229;-68
2022/02/20 02:39:56;;;;;;;1.17;1.00;;;6.50;99.90;;;;;;5002619;28;20455;-68
2022/02/20 02:42:22;;;;;;;2.40;1.13;;;6.50;99.90;;;;;;5032339;28;20468;-69
2022/02/20 02:44:48;;;;;;;1.33;0.70;;;6.50;99.90;;;;;;5020786;28;20221;-69
2022/02/20 02:47:13;;;;;;;1.63;1.10;;;6.50;99.90;;;;;;5053092;27;20496;-69
2022/02/20 02:49:39;;;;;;;3.50;1.20;;;6.50;99.90;;;;;;5100442;27;20218;-69
2022/02/20 02:52:06;;;;;;;1.00;0.90;;;6.50;99.90;;;;;;5068765;27;20221;-70
2022/02/20 02:54:31;;;;;;;0.77;0.77;;;6.50;99.90;;;;;;4981111;28;20483;-68
2022/02/20 02:56:58;;;;;;;2.73;1.07;;;6.50;99.90;;;;;;5009593;28;20492;-68
2022/02/20 02:59:25;;;;;;;1.17;0.97;;;6.50;99.90;;;;;;5002375;27;20239;-70
2022/02/20 03:01:54;;;;;;;0.77;0.77;;;6.50;99.90;;;;;;5039022;28;20465;-70
2022/02/20 03:04:20;;;;;;;4.53;1.00;;;6.50;99.90;;;;;;5009019;28;20520;-71
2022/02/20 03:06:47;;;;;;;5.23;1.00;;;6.50;99.90;;;;;;4992189;28;20451;-71
2022/02/20 03:09:13;;;;;;;0.80;0.80;;;6.50;99.90;;;;;;5003384;28;20840;-69
2022/02/20 03:11:40;;;;;;;1.37;1.27;;;6.50;99.90;;;;;;5000341;28;20451;-68
2022/02/20 03:14:12;;;;;;;1.23;0.93;;;6.50;99.90;;;;;;4993134;28;20994;-68
2022/02/20 03:16:37;;;;;;;1.90;0.83;;;6.50;99.90;;;;;;5033716;28;20474;-68
2022/02/20 03:19:06;;;;;;;2.33;0.67;;;6.50;99.90;;;;;;5017922;28;20228;-69
2022/02/20 03:21:34;;;;;;;1.40;1.27;;;6.50;99.90;;;;;;5013198;28;20484;-68
2022/02/20 03:24:03;;;;;;;1.00;0.90;;;6.50;99.90;;;;;;5002632;28;20840;-69
2022/02/20 03:26:29;;;;;;;5.23;0.93;;;6.50;99.90;;;;;;4992994;28;21114;-68
2022/02/20 03:28:57;;;;;;;0.70;0.60;;;6.60;99.90;;;;;;4998052;28;20999;-69
2022/02/20 03:31:26;;;;;;;1.37;1.27;;;6.50;99.90;;;;;;5061251;27;20459;-69
2022/02/20 03:33:52;;;;;;;2.30;0.77;;;6.60;99.90;;;;;;5054017;27;20453;-68
2022/02/20 03:36:18;;;;;;;2.10;0.80;;;6.60;99.90;;;;;;5001633;28;20558;-69
2022/02/20 03:38:44;;;;;;;0.73;0.70;;;6.60;99.90;;;;;;5003578;28;20252;-70
2022/02/20 03:41:14;;;;;;;2.63;0.90;;;6.60;99.90;;;;;;4990134;28;20468;-72
2022/02/20 03:43:41;;;;;;;0.60;0.60;;;6.60;99.90;;;;;;5053345;27;20467;-69
2022/02/20 03:46:08;;;;;;;1.17;1.07;;;6.60;99.90;;;;;;5006763;28;20463;-68
2022/02/20 03:48:54;;;;;;;0.80;0.60;;;6.60;99.90;;;;;;5004500;28;20463;-70
2022/02/20 03:51:34;;;;;;;2.67;0.87;;;6.60;99.90;;;;;;4985771;28;21578;-69
2022/02/20 03:54:00;;;;;;;2.00;0.80;;;6.60;99.90;;;;;;5003344;28;20502;-69
2022/02/20 03:56:25;;;;;;;2.20;0.77;;;6.60;99.90;;;;;;5000234;28;20220;-70
2022/02/20 03:58:53;;;;;;;3.30;1.00;;;6.60;99.90;;;;;;4983417;28;20221;-70
2022/02/20 04:01:21;;;;;;;1.63;0.60;;;6.60;99.90;;;;;;5075003;27;20468;-68
2022/02/20 04:03:48;;;;;;;2.53;0.73;;;6.60;99.90;;;;;;5047531;28;20450;-68
2022/02/20 04:06:14;;;;;;;1.33;1.00;;;6.60;99.90;;;;;;5009373;28;20448;-69
2022/02/20 04:08:45;;;;;;;6.93;0.90;;;6.60;99.90;;;;;;5022085;28;20277;-69
2022/02/20 04:11:12;;;;;;;1.33;0.90;;;6.60;99.90;;;;;;4981330;28;20485;-70
2022/02/20 04:13:54;;;;;;;1.70;0.60;;;6.60;99.90;;;;;;4997357;28;20878;-69
2022/02/20 04:16:38;;;;;;;2.10;0.70;;;6.60;99.90;;;;;;5053746;28;20600;-68
2022/02/20 04:19:04;;;;;;;1.40;0.70;;;6.50;99.90;;;;;;5000518;28;20468;-68
2022/02/20 04:21:34;;;;;;;1.53;0.70;;;6.50;99.90;;;;;;5045156;27;20471;-69
2022/02/20 04:24:08;;;;;;;1.20;1.10;;;6.50;99.90;;;;;;5002989;28;20478;-68
2022/02/20 04:26:34;;;;;;;2.07;0.70;;;6.50;99.90;;;;;;4999361;28;20466;-69
2022/02/20 04:29:00;;;;;;;2.77;0.80;;;6.40;99.90;;;;;;4989043;28;20247;-69
2022/02/20 04:31:27;;;;;;;1.97;1.37;;;6.40;99.90;;;;;;5014899;28;20535;-70
2022/02/20 04:33:57;;;;;;;1.40;0.90;;;6.40;99.90;;;;;;5008537;28;20452;-68
2022/02/20 04:36:24;;;;;;;0.90;0.77;;;6.40;99.90;;;;;;5001167;28;20488;-72
2022/02/20 04:38:54;;;;;;;2.17;1.37;;;6.40;99.90;;;;;;4986580;28;20464;-68
2022/02/20 04:41:22;;;;;;;1.23;0.90;;;6.40;99.90;;;;;;4976896;28;20496;-70
2022/02/20 04:43:49;;;;;;;0.80;0.80;;;6.40;99.90;;;;;;5035618;27;20455;-69
2022/02/20 04:46:16;;;;;;;1.10;0.80;;;6.40;99.90;;;;;;5018641;28;20458;-68
2022/02/20 04:48:42;;;;;;;0.90;0.90;;;6.40;99.90;;;;;;4986059;28;20460;-69
2022/02/20 04:51:20;;;;;;;3.40;0.90;;;6.30;99.90;;;;;;4991706;28;20229;-68
2022/02/20 04:53:46;;;;;;;1.10;1.00;;;6.30;99.90;;;;;;4971303;28;20979;-69
2022/02/20 04:56:12;;;;;;;0.70;0.67;;;6.30;99.90;;;;;;5010386;28;20651;-69
2022/02/20 04:58:39;;;;;;;2.00;1.10;;;6.30;99.90;;;;;;5017302;28;20231;-70
2022/02/20 05:01:15;;;;;;;1.07;0.97;;;6.30;99.90;;;;;;5024533;27;20476;-69
2022/02/20 05:03:59;;;;;;;2.40;0.97;;;6.20;99.90;;;;;;5047502;27;20463;-69
2022/02/20 05:06:41;;;;;;;2.50;1.00;;;6.20;99.90;;;;;;4997011;28;20456;-69
2022/02/20 05:09:13;;;;;;;1.60;1.00;;;6.20;99.90;;;;;;4993336;28;20512;-69
2022/02/20 05:11:46;;;;;;;4.27;1.10;;;6.20;99.90;;;;;;5004675;28;20522;-70
2022/02/20 05:14:12;;;;;;;3.17;0.97;;;6.20;99.90;;;;;;5021909;28;20555;-69
2022/02/20 05:16:38;;;;;;;2.23;0.80;;;6.20;99.90;;;;;;4987056;28;20220;-68
2022/02/20 05:19:08;;;;;;;2.53;1.27;;;6.20;99.90;;;;;;5037465;27;20307;-70
2022/02/20 05:21:44;;;;;;;1.60;0.90;;;6.20;99.90;;;;;;4986246;28;20468;-70
2022/02/20 05:24:10;;;;;;;1.10;1.00;;;6.20;99.90;;;;;;4995869;28;20471;-70
2022/02/20 05:26:39;;;;;;;2.80;1.07;;;6.20;99.90;;;;;;5013455;28;20223;-70
2022/02/20 05:29:05;;;;;;;1.17;1.10;;;6.30;99.90;;;;;;5025578;28;20507;-68
2022/02/20 05:31:31;;;;;;;2.73;1.33;;;6.30;99.90;;;;;;5047562;27;20472;-69
2022/02/20 05:34:02;;;;;;;1.30;1.20;;;6.30;99.90;;;;;;5052139;28;20600;-69
2022/02/20 05:36:28;;;;;;;3.33;0.90;;;6.30;99.90;;;;;;4988350;28;20570;-69
2022/02/20 05:39:06;;;;;;;5.07;1.30;;;6.30;99.90;;;;;;4999361;28;20480;-72
2022/02/20 05:41:32;;;;;;;1.53;0.93;;;6.40;99.90;;;;;;4973354;28;20459;-71
2022/02/20 05:43:58;;;;;;;5.30;1.60;;;6.40;99.90;;;;;;4997604;28;20483;-73
2022/02/20 05:46:29;;;;;;;1.93;1.57;;;6.40;99.90;;;;;;4996462;28;20221;-71
2022/02/20 05:48:55;;;;;;;2.47;1.20;;;6.40;99.90;;;;;;4988604;28;20461;-70
2022/02/20 05:51:41;;;;;;;1.53;1.10;;;6.50;99.90;;;;;;4989419;28;20688;-72
2022/02/20 05:54:16;;;;;;;3.03;1.20;;;6.50;99.90;;;;;;4978360;28;20454;-71
2022/02/20 05:56:42;;;;;;;1.43;1.33;;;6.50;99.90;;;;;;4991411;28;20984;-71
2022/02/20 05:59:08;;;;;;;4.37;1.50;;;6.50;99.90;;;;;;4999406;28;20232;-72
2022/02/20 06:01:35;;;;;;;1.50;1.40;;;6.50;99.90;;;;;;5017225;28;20587;-72
2022/02/20 06:04:08;;;;;;;4.13;1.80;;;6.50;99.90;;;;;;5007844;28;20584;-71
2022/02/20 06:06:39;;;;;;;2.60;1.93;;;6.60;99.90;;;;;;4996783;28;20464;-71
2022/02/20 06:09:26;;;;;;;6.10;2.80;;;6.60;99.90;;;;;;5000175;28;20463;-71
2022/02/20 06:12:06;;;;;;;2.00;1.70;;;6.60;99.90;;;;;;5013958;28;20488;-71
2022/02/20 06:14:46;;;;;;;2.67;1.40;;;6.60;99.90;;;;;;4993845;28;20458;-72
2022/02/20 06:17:19;;;;;;;2.00;1.60;;;6.60;99.90;;;;;;4996645;28;20475;-70
2022/02/20 06:20:05;;;;;;;3.40;2.13;;;6.60;99.90;;;;;;5004122;28;20503;-75
2022/02/20 06:22:49;;;;;;;3.30;2.00;;;6.60;99.90;;;;;;5028192;27;20471;-71
2022/02/20 06:25:33;;;;;;;3.67;2.40;;;6.60;99.90;;;;;;4996030;28;20841;-71
2022/02/20 06:28:25;;;;;;;7.90;2.43;;;6.60;99.90;;;;;;4994537;28;20546;-71
2022/02/20 06:30:52;;;;;;;2.17;1.63;;;6.70;99.90;;;;;;5014138;28;20455;-72
2022/02/20 06:33:26;;;;;;;3.83;2.30;;;6.70;99.90;;;;;;5010812;28;20456;-72
2022/02/20 06:35:55;;;;;;;5.20;2.10;;;6.70;99.90;;;;;;4987024;28;20452;-71
2022/02/20 06:38:20;;;;;;;2.50;1.93;;;6.70;99.90;;;;;;4991158;28;20512;-71
2022/02/20 06:40:49;;;;;;;2.20;1.90;;;6.70;99.90;;;;;;4991716;28;20488;-71
2022/02/20 06:43:19;;;;;;;3.50;2.70;;;6.70;99.90;;;;;;5014113;28;20482;-71
2022/02/20 06:45:51;;;;;;;2.00;1.43;;;6.70;99.90;;;;;;5012047;28;20542;-72
2022/02/20 06:48:35;;;;;;;4.47;2.10;;;6.70;99.90;;;;;;4985775;28;20467;-72
2022/02/20 06:51:06;;;;;;;4.77;2.43;;;6.70;99.90;;;;;;4996466;28;20463;-72
2022/02/20 06:53:46;;;;;;;2.23;1.67;;;6.70;99.90;;;;;;5005412;28;20451;-71
2022/02/20 06:56:32;;;;;;;3.27;2.30;;;6.80;99.90;;;;;;5016028;28;20455;-72
2022/02/20 06:58:58;;;;;;;6.20;2.23;;;6.80;99.90;;;;;;5018999;28;20529;-72
2022/02/20 07:01:24;;;;;;;7.93;2.30;;;6.80;99.90;;;;;;5026311;27;20220;-72
2022/02/20 07:03:50;;;;;;;2.27;2.07;;;6.80;99.90;;;;;;5106426;27;20456;-74
2022/02/20 07:06:16;;;;;;;2.63;2.27;;;6.80;99.90;;;;;;4995736;28;20505;-74
2022/02/20 07:08:42;;;;;;;8.30;2.40;;;6.80;99.90;;;;;;4992889;28;20452;-72
2022/02/20 07:11:08;;;;;;;5.77;2.43;;;6.80;99.90;;;;;;5001935;28;20471;-72
2022/02/20 07:13:34;;;;;;;10.40;3.53;;;6.90;99.90;;;;;;4983340;28;20540;-72
2022/02/20 07:16:00;;;;;;;6.70;2.60;;;6.90;99.90;;;;;;4982874;28;20461;-70
2022/02/20 07:18:26;;;;;;;7.90;2.47;;;6.90;99.90;;;;;;5023474;28;20306;-72
2022/02/20 07:20:51;;;;;;;4.43;2.43;;;6.90;99.90;;;;;;5051689;27;20231;-70
2022/02/20 07:23:17;;;;;;;4.00;2.80;;;7.00;99.90;;;;;;5001777;28;20236;-71
2022/02/20 07:25:43;;;;;;;3.50;2.63;;;7.00;99.90;;;;;;5003937;28;20225;-71
2022/02/20 07:28:10;;;;;;;4.17;2.40;;;7.00;99.90;;;;;;4996416;28;20229;-73
2022/02/20 07:30:36;;;;;;;4.00;2.33;;;7.00;99.90;;;;;;5012400;27;20296;-72
2022/02/20 07:33:07;;;;;;;10.80;3.10;;;7.10;99.90;;;;;;5018515;28;21104;-71
2022/02/20 07:35:37;;;;;;;4.83;2.07;;;7.10;99.90;;;;;;5004959;27;20459;-71
2022/02/20 07:38:05;;;;;;;2.03;1.80;;;7.10;99.90;;;;;;5026997;28;20552;-73
2022/02/20 07:40:31;;;;;;;2.00;1.60;;;7.10;99.90;;;;;;4996672;28;20468;-73
2022/02/20 07:42:57;;;;;;;5.00;2.00;;;7.10;99.90;;;;;;5011257;28;20830;-70
2022/02/20 07:45:23;;;;;;;3.80;2.13;;;7.20;99.90;;;;;;4994704;28;20528;-71
2022/02/20 07:47:56;;;;;;;3.93;1.87;;;7.20;99.90;;;;;;5003562;28;20455;-71
2022/02/20 07:50:27;;;;;;;3.10;1.70;;;7.20;99.90;;;;;;4999340;28;20467;-72
2022/02/20 07:52:53;;;;;;;2.20;1.67;;;7.20;99.90;;;;;;5003027;28;20495;-71
2022/02/20 07:55:19;;;;;;;5.30;1.63;;;7.20;99.90;;;;;;4982117;28;20530;-70
2022/02/20 07:57:45;;;;;;;4.07;1.97;;;7.20;99.90;;;;;;5010542;28;20456;-71
2022/02/20 08:00:13;;;;;;;3.23;1.73;;;7.20;99.90;;;;;;5010423;27;20464;-71
2022/02/20 08:02:40;;;;;;;4.40;1.60;;;7.20;99.90;;;;;;5009182;28;20457;-70
2022/02/20 08:05:06;;;;;;;2.30;1.53;;;7.30;99.90;;;;;;5005738;28;20909;-74
2022/02/20 08:07:32;;;;;;;2.00;1.60;;;7.30;99.90;;;;;;5022704;27;20455;-70
2022/02/20 08:09:58;;;;;;;2.47;2.00;;;7.30;99.90;;;;;;5001174;28;20471;-71
2022/02/20 08:12:23;;;;;;;1.87;1.30;;;7.30;99.90;;;;;;4987237;28;20257;-70
2022/02/20 08:14:49;;;;;;;2.30;1.73;;;7.30;99.90;;;;;;4999645;28;20229;-70
2022/02/20 08:17:15;;;;;;;2.30;1.63;;;7.30;99.90;;;;;;5065557;27;20280;-72
2022/02/20 08:19:40;;;;;;;2.10;1.60;;;7.30;99.90;;;;;;5015727;27;20225;-71
2022/02/20 08:22:07;;;;;;;5.00;1.40;;;7.40;99.90;;;;;;5111393;27;20222;-72
2022/02/20 08:24:33;;;;;;;1.90;1.50;;;7.40;99.90;;;;;;5017104;27;20824;-71
2022/02/20 08:26:58;;;;;;;3.00;1.27;;;7.40;99.90;;;;;;5028610;28;20537;-71
2022/02/20 08:29:24;;;;;;;2.30;0.97;;;7.40;99.90;;;;;;4997549;28;20288;-72
2022/02/20 08:31:50;;;;;;;1.70;1.47;;;7.40;99.90;;;;;;5019123;27;20548;-70
2022/02/20 08:34:17;;;;;;;2.73;1.40;;;7.40;99.90;;;;;;4989519;28;20843;-70
2022/02/20 08:36:43;;;;;;;2.50;1.50;;;7.40;99.90;;;;;;4981121;28;20497;-71
2022/02/20 08:39:08;;;;;;;1.43;1.33;;;7.40;99.90;;;;;;5029653;28;20510;-71
2022/02/20 08:41:39;;;;;;;1.37;1.27;;;7.40;99.90;;;;;;4997969;28;20220;-71
2022/02/20 08:44:05;;;;;;;2.80;1.67;;;7.50;99.90;;;;;;5038815;27;20229;-71
2022/02/20 08:46:31;;;;;;;1.30;1.20;;;7.50;99.90;;;;;;4998576;28;20533;-71
2022/02/20 08:48:58;;;;;;;2.23;1.33;;;7.50;99.90;;;;;;5002652;28;20460;-71
2022/02/20 08:51:24;;;;;;;1.30;1.17;;;7.50;99.90;;;;;;4997462;28;20612;-70
2022/02/20 08:53:50;;;;;;;1.00;1.00;;;7.50;99.90;;;;;;5000498;28;20307;-71
2022/02/20 08:56:15;;;;;;;1.40;1.30;;;7.50;99.90;;;;;;5025392;27;20248;-70
2022/02/20 08:58:41;;;;;;;4.00;1.27;;;7.60;99.90;;;;;;5022500;28;20902;-70
2022/02/20 09:01:07;;;;;;;1.23;1.13;;;7.60;99.90;;;;;;5048698;27;20224;-70
2022/02/20 09:03:33;;;;;;;0.80;0.80;;;7.60;99.90;;;;;;4984929;28;20279;-72
2022/02/20 09:05:58;;;;;;;1.80;1.10;;;7.60;99.90;;;;;;4985735;28;20218;-71
2022/02/20 09:08:24;;;;;;;2.03;1.30;;;7.70;99.90;;;;;;5027496;27;20226;-71
2022/02/20 09:10:50;;;;;;;4.23;2.23;;;7.70;99.90;;;;;;5012173;28;20223;-72
2022/02/20 09:13:16;;;;;;;1.90;1.07;;;7.70;99.90;;;;;;4998644;28;20480;-70
2022/02/20 09:15:42;;;;;;;2.93;2.17;;;7.70;99.90;;;;;;5001985;28;20315;-71
2022/02/20 09:18:08;;;;;;;3.37;1.57;;;7.70;99.90;;;;;;5051363;27;20459;-70
2022/02/20 09:20:34;;;;;;;1.23;1.13;;;7.80;99.90;;;;;;5034688;27;20549;-70
2022/02/20 09:23:00;;;;;;;0.90;0.90;;;7.80;99.90;;;;;;5032536;28;20700;-72
2022/02/20 09:25:26;;;;;;;1.10;1.00;;;7.80;99.90;;;;;;5010573;27;20209;-70
2022/02/20 09:27:52;;;;;;;1.13;1.10;;;7.80;99.90;;;;;;5000553;28;20460;-70
2022/02/20 09:30:17;;;;;;;3.10;1.13;;;7.80;99.90;;;;;;4995004;27;20225;-71
2022/02/20 09:32:44;;;;;;;1.87;1.37;;;7.80;99.90;;;;;;5041312;28;20252;-71
2022/02/20 09:35:11;;;;;;;7.73;4.30;;;7.90;99.90;;;;;;4997557;28;20213;-70
2022/02/20 09:37:37;;;;;;;13.37;6.10;;;7.90;99.90;;;;;;5082626;27;20461;-70
2022/02/20 09:40:04;;;;;;;4.93;3.20;;;7.90;99.90;;;;;;4989072;28;20468;-70
2022/02/20 09:42:29;;;;;;;5.10;4.40;;;7.90;99.90;;;;;;4981115;28;20492;-71
2022/02/20 09:44:55;;;;;;;6.10;5.00;;;8.00;99.90;;;;;;4988420;28;20469;-71
2022/02/20 09:47:29;;;;;;;8.23;4.37;;;7.90;99.90;;;;;;4982166;28;20221;-70
2022/02/20 09:50:00;;;;;;;3.03;2.13;;;7.90;99.90;;;;;;4986633;28;20388;-71
2022/02/20 09:52:27;;;;;;;2.23;1.63;;;7.90;99.90;;;;;;4986610;28;20813;-72
2022/02/20 09:54:53;;;;;;;2.80;1.77;;;7.90;99.90;;;;;;4992292;28;20457;-71
2022/02/20 09:57:18;;;;;;;2.90;1.73;;;8.00;99.90;;;;;;4983500;28;20471;-71
2022/02/20 09:59:44;;;;;;;3.07;2.00;;;8.00;99.90;;;;;;4985452;28;20279;-71
2022/02/20 10:02:14;;;;;;;1.77;1.67;;;8.00;99.90;;;;;;4984895;28;20258;-72
2022/02/20 10:04:42;;;;;;;1.97;1.73;;;8.00;99.90;;;;;;4984073;28;20244;-70
2022/02/20 10:07:27;;;;;;;1.53;1.17;;;8.00;99.90;;;;;;4985364;28;20480;-70
2022/02/20 10:09:54;;;;;;;8.67;3.90;;;8.00;99.90;;;;;;4991026;28;20472;-71
2022/02/20 10:12:25;;;;;;;28.63;14.73;;;8.00;99.90;;;;;;4964419;28;20522;-72
2022/02/20 10:14:51;;;;;;;13.10;10.13;;;8.00;99.90;;;;;;4988353;28;20495;-71
2022/02/20 10:17:18;;;;;;;14.10;7.37;;;8.10;99.90;;;;;;4988056;28;20468;-71
2022/02/20 10:20:23;;;;;;;16.50;12.23;;;8.10;99.90;;;;;;4986748;28;20945;-72
2022/02/20 10:23:09;;;;;;;7.00;4.90;;;8.10;99.90;;;;;;4988681;28;20564;-69
2022/02/20 10:26:09;;;;;;;7.87;2.27;;;8.10;99.90;;;;;;4988316;28;20526;-69
2022/02/20 10:29:00;;;;;;;2.27;1.30;;;8.10;99.90;;;;;;4987206;28;20464;-71
2022/02/20 10:31:41;;;;;;;1.70;0.80;;;8.10;99.90;;;;;;4985168;28;20461;-71
2022/02/20 10:34:10;;;;;;;2.40;1.30;;;8.20;99.90;;;;;;4996218;28;20481;-70
2022/02/20 10:36:55;;;;;;;1.73;1.30;;;8.20;99.90;;;;;;4993611;28;20455;-71
2022/02/20 10:39:27;;;;;;;6.10;4.40;;;8.20;99.90;;;;;;5005562;28;20472;-73
2022/02/20 10:41:58;;;;;;;6.93;5.47;;;8.20;99.90;;;;;;4996501;28;20477;-71
2022/02/20 10:44:24;;;;;;;4.27;3.23;;;8.20;99.90;;;;;;5021674;28;20548;-71
2022/02/20 10:47:10;;;;;;;3.57;3.10;;;8.20;99.90;;;;;;4993718;28;20492;-72
2022/02/20 10:49:36;;;;;;;1.93;1.73;;;8.20;99.90;;;;;;4982540;28;20463;-70
2022/02/20 10:52:03;;;;;;;1.40;0.97;;;8.30;99.90;;;;;;4991882;28;20464;-70
2022/02/20 10:54:29;;;;;;;0.93;0.90;;;8.30;99.90;;;;;;4987806;28;20465;-72
2022/02/20 10:56:54;;;;;;;0.67;0.67;;;8.30;99.90;;;;;;4990850;28;20470;-71
2022/02/20 10:59:21;;;;;;;1.23;0.97;;;8.30;99.90;;;;;;5021737;27;20299;-71
2022/02/20 11:01:51;;;;;;;0.60;0.60;;;8.30;99.90;;;;;;4993574;28;20225;-71
2022/02/20 11:04:17;;;;;;;2.73;1.03;;;8.30;99.90;;;;;;4995524;28;20475;-71
2022/02/20 11:06:44;;;;;;;1.13;0.93;;;8.30;99.90;;;;;;4995109;28;20464;-70
2022/02/20 11:09:10;;;;;;;4.50;2.20;;;8.30;99.90;;;;;;5025229;27;20493;-71
2022/02/20 11:11:42;;;;;;;7.50;5.90;;;8.30;99.90;;;;;;4988857;28;20463;-71
2022/02/20 11:14:09;;;;;;;3.90;3.60;;;8.40;99.90;;;;;;4993485;28;20551;-70
2022/02/20 11:16:39;;;;;;;4.90;4.40;;;8.40;99.90;;;;;;4990404;28;20466;-70
2022/02/20 11:19:05;;;;;;;2.80;2.60;;;8.40;99.90;;;;;;4996860;28;20544;-69
2022/02/20 11:21:42;;;;;;;2.90;1.60;;;8.40;99.90;;;;;;4989461;28;20579;-70
2022/02/20 11:24:09;;;;;;;1.00;0.90;;;8.40;99.90;;;;;;4993502;28;20217;-70
2022/02/20 11:26:37;;;;;;;1.53;1.23;;;8.40;99.90;;;;;;4990592;28;20453;-70
2022/02/20 11:29:03;;;;;;;0.90;0.90;;;8.50;99.90;;;;;;5021671;27;20548;-71
2022/02/20 11:31:30;;;;;;;1.27;1.20;;;8.50;99.90;;;;;;4991579;28;20489;-71
2022/02/20 11:33:56;;;;;;;1.00;1.00;;;8.50;99.90;;;;;;4993017;28;20468;-70
2022/02/20 11:36:27;;;;;;;1.40;1.30;;;8.50;99.90;;;;;;4987577;28;20464;-71
2022/02/20 11:39:11;;;;;;;2.50;2.30;;;8.50;99.90;;;;;;5003563;28;20546;-70
2022/02/20 11:41:40;;;;;;;2.40;2.20;;;8.50;99.90;;;;;;4995432;28;20477;-71
2022/02/20 11:44:17;;;;;;;1.40;1.10;;;8.50;99.90;;;;;;4986645;28;20459;-71
2022/02/20 11:46:49;;;;;;;2.20;1.63;;;8.50;99.90;;;;;;4993002;28;20460;-70
2022/02/20 11:49:19;;;;;;;1.37;0.90;;;8.60;99.90;;;;;;5010750;27;20484;-72
2022/02/20 11:52:05;;;;;;;1.10;0.90;;;8.60;99.90;;;;;;4991859;28;20468;-71
2022/02/20 11:54:34;;;;;;;1.00;0.90;;;8.60;99.90;;;;;;5000150;28;20524;-71
2022/02/20 11:57:22;;;;;;;1.03;1.03;;;8.60;99.90;;;;;;5012363;28;20461;-70
2022/02/20 12:00:03;;;;;;;1.67;1.50;;;8.60;99.90;;;;;;5004352;28;20464;-72
2022/02/20 12:03:03;;;;;;;18.03;10.00;;;8.60;99.90;;;;;;5031023;27;20460;-70
2022/02/20 12:05:30;;;;;;;15.63;9.30;;;8.60;99.90;;;;;;5018932;28;20882;-70
2022/02/20 12:07:56;;;;;;;14.70;7.03;;;8.60;99.90;;;;;;5007798;28;20505;-71
2022/02/20 12:10:25;;;;;;;41.10;19.37;;;8.60;99.90;;;;;;5001629;28;20987;-72
2022/02/20 12:12:56;;;;;;;61.00;27.90;;;8.60;99.90;;;;;;4985826;28;20255;-72
2022/02/20 12:15:38;;;;;;;33.27;16.20;;;8.60;99.90;;;;;;4998936;28;20456;-71
2022/02/20 12:18:10;;;;;;;56.03;24.07;;;8.60;99.90;;;;;;5010007;28;20535;-70
2022/02/20 12:20:56;;;;;;;15.80;10.47;;;8.70;99.90;;;;;;5017235;28;20475;-71
2022/02/20 12:23:48;;;;;;;4.50;4.00;;;8.70;99.90;;;;;;4998665;28;20471;-71
2022/02/20 12:26:41;;;;;;;2.83;2.47;;;8.70;99.90;;;;;;4996299;28;20528;-70
2022/02/20 12:29:13;;;;;;;1.40;1.30;;;8.70;99.90;;;;;;5002597;28;20505;-70
2022/02/20 12:31:58;;;;;;;1.90;1.63;;;8.70;99.90;;;;;;5032610;27;20448;-72
2022/02/20 12:35:00;;;;;;;20.10;12.67;;;8.70;99.90;;;;;;5010928;27;20513;-71
2022/02/20 12:37:30;;;;;;;16.63;11.83;;;8.80;99.90;;;;;;5002946;28;20489;-70
2022/02/20 12:40:11;;;;;;;6.77;5.47;;;8.80;99.90;;;;;;5031210;27;20464;-70
2022/02/20 12:42:57;;;;;;;5.57;3.43;;;8.80;99.90;;;;;;4981791;28;21008;-70
2022/02/20 12:45:26;;;;;;;5.70;4.80;;;8.80;99.90;;;;;;4991877;28;20456;-71
2022/02/20 12:47:55;;;;;;;4.27;3.33;;;8.80;99.90;;;;;;5042499;27;20462;-70
2022/02/20 12:50:25;;;;;;;4.00;2.60;;;8.80;99.90;;;;;;5018686;28;20474;-72
2022/02/20 12:52:52;;;;;;;3.37;2.27;;;8.80;99.90;;;;;;5021750;28;20467;-71
2022/02/20 12:55:20;;;;;;;0.80;0.80;;;8.80;99.90;;;;;;5007186;28;20472;-71
2022/02/20 12:57:48;;;;;;;0.80;0.80;;;8.80;99.90;;;;;;5053283;27;20455;-70
2022/02/20 13:00:19;;;;;;;1.03;0.60;;;8.80;99.90;;;;;;5014079;28;20476;-72
2022/02/20 13:02:52;;;;;;;0.50;0.50;;;8.90;99.90;;;;;;4997911;28;20988;-70
2022/02/20 13:05:19;;;;;;;0.40;0.30;;;8.90;99.90;;;;;;4993530;28;20465;-73
2022/02/20 13:07:47;;;;;;;1.33;0.60;;;8.90;99.90;;;;;;4998667;28;20456;-70
2022/02/20 13:10:18;;;;;;;0.50;0.50;;;8.90;99.90;;;;;;4998502;28;20460;-71